Time;durP1;ratioP1;P1;durP2;ratioP2;P2;SDS_P1;SDS_P2;PMS_P1;PMS_P2;Temp;Humidity;BMP_temperature;BMP_pressure;BME280_temperature;BME280_humidity;BME280_pressure;Samples;Min_cycle;Max_cycle;Signal;HPM_P1;HPM_P2
2021/10/08 00:02:18;;;;;;;8.52;5.40;;;;;;;;;;5040311;28;20055;-85
2021/10/08 00:04:44;;;;;;;10.13;6.07;;;;;;;;;;5035518;28;20025;-86
2021/10/08 00:07:10;;;;;;;9.15;5.63;;;;;;;;;;5034683;28;20040;-87
2021/10/08 00:09:38;;;;;;;10.25;6.15;;;;;;;;;;5041396;28;20358;-87
2021/10/08 00:12:04;;;;;;;10.45;6.00;;;;;;;;;;5040574;28;20056;-88
2021/10/08 00:14:30;;;;;;;8.52;4.95;;;;;;;;;;5038179;28;20021;-88
2021/10/08 00:16:56;;;;;;;8.00;5.40;;;;;;;;;;5038162;28;20092;-86
2021/10/08 00:19:22;;;;;;;9.40;6.00;;;;;;;;;;5041769;28;20061;-89
2021/10/08 00:21:48;;;;;;;8.85;5.55;;;;;;;;;;5036347;28;20013;-86
2021/10/08 00:24:14;;;;;;;10.35;6.15;;;;;;;;;;5043561;28;20071;-87
2021/10/08 00:26:40;;;;;;;9.88;5.47;;;;;;;;;;5040844;28;20017;-86
2021/10/08 00:29:07;;;;;;;7.75;5.28;;;;;;;;;;5041636;28;20036;-87
2021/10/08 00:31:33;;;;;;;10.60;5.97;;;;;;;;;;5038001;28;20509;-85
2021/10/08 00:33:59;;;;;;;10.40;5.53;;;;;;;;;;5039720;28;20032;-86
2021/10/08 00:36:25;;;;;;;10.27;5.57;;;;;;;;;;5038586;28;20482;-88
2021/10/08 00:38:52;;;;;;;8.82;5.60;;;;;;;;;;5042928;28;20098;-89
2021/10/08 00:41:19;;;;;;;9.18;5.57;;;;;;;;;;5038854;28;20047;-86
2021/10/08 00:43:46;;;;;;;8.13;4.95;;;;;;;;;;5039182;28;20025;-88
2021/10/08 00:46:12;;;;;;;7.82;5.13;;;;;;;;;;5040256;28;20055;-87
2021/10/08 00:48:38;;;;;;;8.38;5.35;;;;;;;;;;5037642;28;20064;-87
2021/10/08 00:51:04;;;;;;;10.23;5.30;;;;;;;;;;5042458;28;20021;-89
2021/10/08 00:53:30;;;;;;;8.68;5.05;;;;;;;;;;5039425;28;20021;-86
2021/10/08 00:55:56;;;;;;;8.80;4.57;;;;;;;;;;5037834;28;20096;-89
2021/10/08 00:58:23;;;;;;;8.65;4.75;;;;;;;;;;5033629;28;20043;-87
2021/10/08 01:00:49;;;;;;;8.73;4.57;;;;;;;;;;5034929;28;20033;-85
2021/10/08 01:03:17;;;;;;;11.70;5.32;;;;;;;;;;5038930;28;20021;-86
2021/10/08 01:05:43;;;;;;;9.27;4.35;;;;;;;;;;5038123;28;20060;-87
2021/10/08 01:08:09;;;;;;;9.00;5.47;;;;;;;;;;5030368;28;20056;-87
2021/10/08 01:10:38;;;;;;;7.13;4.38;;;;;;;;;;5034600;28;20092;-89
2021/10/08 01:13:05;;;;;;;8.32;5.13;;;;;;;;;;5036234;28;20521;-85
2021/10/08 01:15:31;;;;;;;8.23;4.28;;;;;;;;;;5037783;28;20132;-87
2021/10/08 01:17:57;;;;;;;8.60;4.82;;;;;;;;;;5029571;28;20059;-87
2021/10/08 01:20:24;;;;;;;9.40;5.10;;;10.00;99.90;;;;;;5035151;28;20029;-88
2021/10/08 01:22:53;;;;;;;7.88;4.45;;;;;;;;;;5047610;28;20030;-87
2021/10/08 01:25:19;;;;;;;8.38;4.68;;;;;;;;;;5043075;28;20547;-87
2021/10/08 01:27:45;;;;;;;8.38;5.10;;;;;;;;;;5036775;28;20402;-90
2021/10/08 01:30:12;;;;;;;7.78;4.30;;;;;;;;;;5060753;28;20036;-86
2021/10/08 01:32:38;;;;;;;7.65;4.38;;;;;;;;;;5035416;28;20021;-88
2021/10/08 01:35:05;;;;;;;9.93;4.70;;;9.90;99.90;;;;;;5039996;28;20108;-88
2021/10/08 01:37:31;;;;;;;8.55;4.65;;;;;;;;;;5038181;28;20059;-88
2021/10/08 01:39:57;;;;;;;9.30;4.63;;;;;;;;;;5041591;28;20029;-89
2021/10/08 01:42:23;;;;;;;9.95;4.80;;;;;;;;;;5033368;28;20033;-88
2021/10/08 01:44:49;;;;;;;7.18;4.60;;;;;;;;;;5032071;28;20120;-89
2021/10/08 01:47:15;;;;;;;8.32;4.25;;;;;;;;;;5041235;28;20029;-88
2021/10/08 01:49:41;;;;;;;6.13;4.43;;;;;;;;;;5037080;28;20786;-87
2021/10/08 01:52:07;;;;;;;6.78;4.38;;;;;;;;;;5039099;28;20039;-87
2021/10/08 01:54:34;;;;;;;9.43;5.10;;;;;;;;;;5039764;28;20040;-86
2021/10/08 01:57:00;;;;;;;6.82;4.43;;;;;;;;;;5057292;28;20033;-89
2021/10/08 01:59:26;;;;;;;7.85;5.10;;;;;;;;;;5040547;28;20025;-88
2021/10/08 02:01:52;;;;;;;11.70;5.85;;;10.40;99.90;;;;;;5041936;28;20029;-87
2021/10/08 02:04:18;;;;;;;9.27;4.60;;;;;;;;;;5037612;28;20085;-89
2021/10/08 02:06:44;;;;;;;7.50;4.97;;;;;;;;;;5041326;28;20067;-89
2021/10/08 02:09:13;;;;;;;9.77;5.13;;;;;;;;;;5038576;28;20029;-87
2021/10/08 02:11:39;;;;;;;12.90;5.18;;;9.80;99.90;;;;;;5043456;28;20045;-85
2021/10/08 02:14:05;;;;;;;7.47;4.88;;;;;;;;;;5036201;28;20033;-89
2021/10/08 02:16:31;;;;;;;12.25;5.35;;;;;;;;;;5039043;28;20048;-85
2021/10/08 02:18:57;;;;;;;8.32;4.90;;;;;;;;;;5043521;28;20040;-89
2021/10/08 02:21:24;;;;;;;9.40;4.72;;;10.00;99.90;;;;;;5034476;28;20033;-83
2021/10/08 02:23:51;;;;;;;7.22;4.45;;;;;;;;;;5043667;28;20553;-88
2021/10/08 02:26:18;;;;;;;8.13;4.93;;;;;;;;;;5045034;28;20021;-88
2021/10/08 02:28:44;;;;;;;7.43;4.47;;;;;;;;;;5044068;28;20029;-88
2021/10/08 02:31:10;;;;;;;7.45;4.72;;;;;;;;;;5038263;28;20494;-87
2021/10/08 02:33:37;;;;;;;9.85;4.88;;;;;;;;;;5036443;28;20068;-89
2021/10/08 02:36:04;;;;;;;7.28;4.13;;;;;;;;;;5033254;28;20041;-86
2021/10/08 02:38:31;;;;;;;8.15;4.90;;;;;;;;;;5040810;28;20025;-86
2021/10/08 02:40:57;;;;;;;9.13;5.28;;;;;;;;;;5043999;28;20033;-86
2021/10/08 02:43:23;;;;;;;8.90;4.90;;;;;;;;;;5044620;28;20045;-88
2021/10/08 02:45:50;;;;;;;8.35;4.80;;;;;;;;;;5041356;28;20029;-88
2021/10/08 02:48:16;;;;;;;6.97;4.30;;;;;;;;;;5052274;28;20029;-88
2021/10/08 02:50:42;;;;;;;9.05;5.40;;;;;;;;;;5041594;28;20045;-87
2021/10/08 02:53:08;;;;;;;11.70;5.00;;;;;;;;;;5060973;28;20538;-88
2021/10/08 02:55:34;;;;;;;8.85;5.10;;;;;;;;;;5039340;28;20017;-86
2021/10/08 02:58:00;;;;;;;8.68;5.40;;;;;;;;;;5039860;28;20030;-88
2021/10/08 03:00:26;;;;;;;9.55;5.03;;;;;;;;;;5042448;28;20029;-89
2021/10/08 03:02:52;;;;;;;10.85;5.28;;;;;;;;;;5039288;28;20029;-87
2021/10/08 03:05:18;;;;;;;7.65;4.93;;;;;;;;;;5038340;28;20096;-88
2021/10/08 03:07:44;;;;;;;8.68;5.68;;;;;;;;;;5041914;28;20441;-87
2021/10/08 03:10:11;;;;;;;10.65;6.00;;;;;;;;;;5040139;28;20039;-85
2021/10/08 03:12:38;;;;;;;11.63;7.22;;;;;;;;;;5041496;28;20076;-87
2021/10/08 03:15:04;;;;;;;10.73;5.65;;;;;;;;;;5041735;28;20044;-89
2021/10/08 03:17:31;;;;;;;9.48;5.43;;;;;;;;;;5050003;28;20429;-89
2021/10/08 03:19:57;;;;;;;7.90;5.15;;;;;;;;;;5043478;28;20033;-84
2021/10/08 03:22:23;;;;;;;13.68;6.38;;;;;;;;;;5042853;28;20052;-86
2021/10/08 03:24:49;;;;;;;11.73;5.55;;;;;;;;;;5046425;28;20397;-88
2021/10/08 03:27:15;;;;;;;9.65;5.50;;;;;;;;;;5040526;28;20028;-86
2021/10/08 03:29:41;;;;;;;11.93;6.15;;;;;;;;;;5044595;28;20037;-88
2021/10/08 03:32:07;;;;;;;8.57;5.25;;;;;;;;;;5042044;28;20033;-88
2021/10/08 03:34:34;;;;;;;9.65;5.82;;;;;;;;;;5043778;28;20039;-86
2021/10/08 03:37:07;;;;;;;10.57;6.00;;;;;;;;;;5038708;28;20141;-87
2021/10/08 03:39:37;;;;;;;9.88;5.78;;;;;;;;;;5031663;28;20035;-85
2021/10/08 03:42:04;;;;;;;12.25;6.30;;;;;;;;;;5035683;28;20041;-86
2021/10/08 03:44:35;;;;;;;11.32;6.03;;;;;;;;;;5035139;28;20159;-86
2021/10/08 03:47:01;;;;;;;11.43;6.32;;;;;;;;;;5035088;28;20034;-84
2021/10/08 03:49:28;;;;;;;11.90;6.82;;;;;;;;;;5039595;28;20036;-84
2021/10/08 03:51:54;;;;;;;10.05;5.38;;;;;;;;;;5035682;28;20022;-86
2021/10/08 03:54:21;;;;;;;11.88;5.97;;;;;;;;;;5043611;28;20021;-88
2021/10/08 03:56:47;;;;;;;10.52;6.30;;;;;;;;;;5036457;28;20056;-85
2021/10/08 03:59:15;;;;;;;11.27;6.32;;;;;;;;;;5037861;28;20047;-86
2021/10/08 04:01:41;;;;;;;10.50;6.93;;;;;;;;;;5036249;28;20061;-86
2021/10/08 04:04:07;;;;;;;9.77;6.25;;;;;;;;;;5034321;28;20042;-86
2021/10/08 04:06:34;;;;;;;10.38;6.15;;;;;;;;;;5034447;28;20057;-85
2021/10/08 04:09:01;;;;;;;12.38;6.20;;;;;;;;;;5040490;28;20105;-86
2021/10/08 04:11:27;;;;;;;11.25;6.68;;;;;;;;;;5040382;28;20513;-84
2021/10/08 04:13:53;;;;;;;12.43;7.35;;;;;;;;;;5040970;28;20025;-86
2021/10/08 04:16:20;;;;;;;13.32;6.45;;;;;;;;;;5043975;28;20017;-84
2021/10/08 04:18:46;;;;;;;12.30;6.95;;;;;;;;;;5042887;28;20055;-84
2021/10/08 04:21:12;;;;;;;12.55;7.70;;;;;;;;;;5044853;28;20025;-83
2021/10/08 04:23:42;;;;;;;12.80;7.65;;;;;;;;;;5047348;28;20021;-84
2021/10/08 04:26:08;;;;;;;14.77;7.20;;;;;;;;;;5047778;28;20036;-84
2021/10/08 04:28:34;;;;;;;12.05;6.88;;;;;;;;;;5032845;28;20040;-85
2021/10/08 04:31:00;;;;;;;14.05;7.50;;;;;;;;;;5044498;28;20042;-86
2021/10/08 04:33:27;;;;;;;13.60;7.82;;;;;;;;;;5046452;28;20059;-84
2021/10/08 04:35:56;;;;;;;11.90;6.95;;;;;;;;;;5044862;28;20021;-84
2021/10/08 04:38:23;;;;;;;16.23;7.18;;;;;;;;;;5043992;28;20079;-84
2021/10/08 04:40:49;;;;;;;13.48;8.00;;;;;;;;;;5039291;28;20056;-84
2021/10/08 04:43:15;;;;;;;11.23;6.63;;;;;;;;;;5049834;28;20047;-83
2021/10/08 04:45:41;;;;;;;10.93;6.88;;;;;;;;;;5048580;28;20055;-84
2021/10/08 04:48:07;;;;;;;12.63;6.65;;;;;;;;;;5043827;28;20025;-86
2021/10/08 04:50:34;;;;;;;13.45;7.45;;;;;;;;;;5047439;28;20044;-85
2021/10/08 04:53:00;;;;;;;13.07;6.35;;;;;;;;;;5049328;28;20025;-84
2021/10/08 04:55:26;;;;;;;11.63;6.38;;;;;;;;;;5046536;28;20080;-84
2021/10/08 04:57:52;;;;;;;10.07;6.15;;;;;;;;;;5050131;28;20167;-83
2021/10/08 05:00:18;;;;;;;12.68;7.47;;;;;;;;;;5046678;28;20036;-84
2021/10/08 05:02:44;;;;;;;13.20;6.85;;;;;;;;;;5043544;28;20029;-85
2021/10/08 05:05:10;;;;;;;12.35;7.28;;;;;;;;;;5045242;28;20048;-83
2021/10/08 05:07:36;;;;;;;11.85;6.70;;;;;;;;;;5042606;28;20037;-82
2021/10/08 05:10:02;;;;;;;14.57;7.72;;;;;;;;;;5053959;28;20021;-83
2021/10/08 05:12:28;;;;;;;13.43;7.90;;;;;;;;;;5052993;28;20033;-86
2021/10/08 05:14:54;;;;;;;15.55;7.68;;;;;;;;;;5036878;28;20021;-83
2021/10/08 05:17:20;;;;;;;14.93;7.22;;;;;;;;;;5038321;28;20025;-83
2021/10/08 05:19:46;;;;;;;13.05;6.72;;;;;;;;;;5039567;28;20036;-83
2021/10/08 05:22:12;;;;;;;15.55;7.20;;;;;;;;;;5038553;28;20040;-87
2021/10/08 05:24:38;;;;;;;13.52;7.22;;;;;;;;;;5041485;28;20406;-85
2021/10/08 05:27:05;;;;;;;13.15;7.00;;;;;;;;;;5043490;28;20025;-82
2021/10/08 05:29:31;;;;;;;15.38;8.07;;;;;;;;;;5042354;28;20116;-84
2021/10/08 05:31:57;;;;;;;12.93;7.55;;;;;;;;;;5045403;28;20040;-83
2021/10/08 05:34:23;;;;;;;14.85;8.20;;;;;;;;;;5043080;28;20120;-81
2021/10/08 05:36:49;;;;;;;17.70;8.60;;;;;;;;;;5044137;28;20025;-83
2021/10/08 05:39:19;;;;;;;15.68;8.25;;;;;;;;;;5049986;28;20442;-85
2021/10/08 05:41:45;;;;;;;14.95;7.93;;;;;;;;;;5046706;28;20119;-84
2021/10/08 05:44:11;;;;;;;13.95;8.35;;;;;;;;;;5046183;28;20043;-86
2021/10/08 05:46:38;;;;;;;14.32;7.93;;;9.00;99.90;;;;;;5042822;28;20025;-82
2021/10/08 05:49:04;;;;;;;14.95;7.43;;;;;;;;;;5046408;28;20028;-82
2021/10/08 05:51:30;;;;;;;17.63;8.10;;;;;;;;;;5043684;28;20032;-83
2021/10/08 05:53:56;;;;;;;14.07;7.95;;;;;;;;;;5045424;28;20021;-85
2021/10/08 05:56:22;;;;;;;13.32;7.57;;;;;;;;;;5042956;28;20497;-82
2021/10/08 05:58:48;;;;;;;11.45;6.50;;;;;;;;;;5026359;28;20054;-84
2021/10/08 06:01:15;;;;;;;13.88;7.60;;;;;;;;;;5040523;28;20029;-84
2021/10/08 06:03:41;;;;;;;14.82;8.13;;;;;;;;;;5041726;28;20025;-85
2021/10/08 06:06:07;;;;;;;13.45;7.68;;;;;;;;;;5037385;28;20385;-87
2021/10/08 06:08:33;;;;;;;14.48;7.75;;;;;;;;;;5038984;28;20033;-84
2021/10/08 06:10:59;;;;;;;13.90;8.07;;;;;;;;;;5045837;28;20465;-85
2021/10/08 06:13:25;;;;;;;20.00;7.78;;;;;;;;;;5041064;28;20088;-87
2021/10/08 06:15:51;;;;;;;13.48;7.38;;;;;;;;;;5040040;28;20032;-85
2021/10/08 06:18:18;;;;;;;13.43;7.20;;;;;;;;;;5051612;28;20048;-86
2021/10/08 06:20:44;;;;;;;12.15;6.47;;;;;;;;;;5034898;28;20020;-85
2021/10/08 06:23:10;;;;;;;13.32;7.30;;;;;;;;;;5059445;28;20021;-85
2021/10/08 06:25:38;;;;;;;12.05;6.45;;;;;;;;;;5043885;28;20033;-87
2021/10/08 06:28:04;;;;;;;10.98;6.28;;;;;;;;;;5043125;28;20056;-83
2021/10/08 06:30:30;;;;;;;12.10;6.60;;;;;;;;;;5037637;28;20029;-83
2021/10/08 06:32:56;;;;;;;12.07;6.30;;;;;;;;;;5044504;28;20100;-87
2021/10/08 06:35:22;;;;;;;10.63;6.07;;;;;;;;;;5039096;28;20027;-85
2021/10/08 06:37:48;;;;;;;13.20;6.03;;;;;;;;;;5045205;28;20040;-86
2021/10/08 06:40:14;;;;;;;15.15;6.70;;;10.00;99.90;;;;;;5040260;28;20036;-84
2021/10/08 06:42:40;;;;;;;10.45;6.18;;;;;;;;;;5041039;28;20052;-82
2021/10/08 06:45:07;;;;;;;9.30;6.10;;;;;;;;;;5039615;28;20471;-84
2021/10/08 06:47:33;;;;;;;11.55;6.05;;;;;;;;;;5042392;28;20386;-82
2021/10/08 06:49:59;;;;;;;11.43;6.35;;;;;;;;;;5042588;28;20029;-82
2021/10/08 06:52:25;;;;;;;10.10;5.97;;;;;;;;;;5042664;28;20032;-84
2021/10/08 06:54:51;;;;;;;10.07;5.50;;;;;;;;;;5033734;28;20022;-87
2021/10/08 06:57:17;;;;;;;10.05;5.72;;;;;;;;;;5034744;28;20462;-84
2021/10/08 06:59:46;;;;;;;12.15;5.85;;;;;;;;;;5038006;28;20093;-84
2021/10/08 07:02:12;;;;;;;8.73;5.45;;;;;;;;;;5042488;28;20088;-88
2021/10/08 07:04:38;;;;;;;10.77;6.22;;;;;;;;;;5037085;28;20018;-85
2021/10/08 07:07:04;;;;;;;12.27;5.63;;;;;;;;;;5033777;28;20057;-85
2021/10/08 07:09:30;;;;;;;8.05;5.10;;;;;;;;;;5037820;28;20070;-83
2021/10/08 07:11:56;;;;;;;10.30;6.05;;;;;;;;;;5055515;28;20151;-83
2021/10/08 07:14:22;;;;;;;9.98;5.82;;;;;;;;;;5059169;28;20080;-87
2021/10/08 07:16:50;;;;;;;8.98;5.47;;;;;;;;;;5044138;28;20071;-88
2021/10/08 07:19:16;;;;;;;8.50;5.07;;;;;;;;;;5039099;28;20033;-84
2021/10/08 07:21:43;;;;;;;9.02;5.30;;;;;;;;;;5042399;28;20429;-82
2021/10/08 07:24:10;;;;;;;10.07;5.20;;;;;;;;;;5046593;28;20051;-87
2021/10/08 07:26:36;;;;;;;8.32;5.38;;;;;;;;;;5061732;28;20029;-83
2021/10/08 07:29:03;;;;;;;8.90;5.38;;;;;;;;;;5045468;28;20059;-82
2021/10/08 07:31:29;;;;;;;9.32;5.03;;;;;;;;;;5042260;28;20462;-85
2021/10/08 07:33:55;;;;;;;8.25;5.40;;;;;;;;;;5059020;28;20025;-84
2021/10/08 07:36:21;;;;;;;12.60;6.13;;;;;;;;;;5033524;28;20221;-81
2021/10/08 07:38:47;;;;;;;10.85;5.03;;;;;;;;;;5039542;28;20064;-82
2021/10/08 07:41:13;;;;;;;11.13;5.03;;;;;;;;;;5045243;28;20044;-84
2021/10/08 07:43:43;;;;;;;8.93;5.28;;;;;;;;;;5045704;28;20560;-82
2021/10/08 07:46:09;;;;;;;6.88;4.85;;;;;;;;;;5044265;28;20445;-84
2021/10/08 07:48:36;;;;;;;8.32;4.88;;;;;;;;;;5037951;28;20021;-82
2021/10/08 07:51:02;;;;;;;9.10;4.85;;;;;;;;;;5044966;28;20029;-83
2021/10/08 07:53:28;;;;;;;7.82;5.18;;;;;;;;;;5037506;28;20025;-83
2021/10/08 07:55:55;;;;;;;7.10;4.90;;;;;;;;;;5053270;28;20521;-84
2021/10/08 07:58:26;;;;;;;8.82;4.75;;;;;;;;;;5041269;28;20111;-85
2021/10/08 08:00:56;;;;;;;7.55;5.20;;;12.40;99.90;;;;;;5042203;28;20033;-85
2021/10/08 08:03:23;;;;;;;10.07;5.25;;;12.50;99.90;;;;;;5036584;28;20028;-83
2021/10/08 08:05:49;;;;;;;7.28;4.80;;;;;;;;;;5043982;28;20041;-83
2021/10/08 08:08:15;;;;;;;7.45;4.93;;;;;;;;;;5041597;28;20474;-83
2021/10/08 08:10:41;;;;;;;7.30;4.63;;;;;;;;;;5042805;28;20469;-83
2021/10/08 08:13:07;;;;;;;7.68;4.43;;;;;;;;;;5042074;28;20066;-86
2021/10/08 08:15:33;;;;;;;7.13;4.07;;;;;;;;;;5042174;28;20029;-84
2021/10/08 08:17:59;;;;;;;8.57;4.47;;;;;;;;;;5055838;28;20556;-83
2021/10/08 08:20:25;;;;;;;9.05;4.38;;;;;;;;;;5036212;28;20025;-85
2021/10/08 08:22:51;;;;;;;6.78;4.53;;;;;;;;;;5036144;28;20100;-84
2021/10/08 08:25:17;;;;;;;7.00;4.63;;;;;;;;;;5037398;28;20044;-84
2021/10/08 08:27:43;;;;;;;8.35;4.20;;;;;;;;;;5040256;28;20105;-85
2021/10/08 08:30:09;;;;;;;10.60;4.22;;;;;;;;;;5037314;28;20039;-85
2021/10/08 08:32:35;;;;;;;6.72;3.83;;;;;;;;;;5040411;28;20025;-85
2021/10/08 08:35:02;;;;;;;6.82;4.20;;;;;;;;;;5032153;28;20060;-82
2021/10/08 08:37:28;;;;;;;6.30;4.45;;;;;;;;;;5033428;28;20064;-82
2021/10/08 08:39:54;;;;;;;8.57;4.10;;;;;;;;;;5031060;28;20514;-83
2021/10/08 08:42:20;;;;;;;10.30;3.88;;;14.00;99.90;;;;;;5038198;28;20034;-84
2021/10/08 08:44:47;;;;;;;9.75;4.50;;;;;;;;;;5039642;28;20043;-82
2021/10/08 08:47:17;;;;;;;6.97;3.55;;;14.20;99.90;;;;;;5042877;28;20461;-83
2021/10/08 08:49:43;;;;;;;6.65;3.22;;;;;;;;;;5040014;28;20029;-84
2021/10/08 08:52:10;;;;;;;7.00;3.95;;;;;;;;;;5039090;28;20044;-84
2021/10/08 08:54:36;;;;;;;7.97;3.70;;;;;;;;;;5041631;28;20067;-84
2021/10/08 08:57:09;;;;;;;6.70;3.58;;;;;;;;;;5044995;28;20043;-83
2021/10/08 08:59:55;;;;;;;7.20;3.25;;;;;;;;;;5044787;28;20047;-83
2021/10/08 09:02:24;;;;;;;7.07;3.10;;;;;;;;;;5033547;28;20033;-84
2021/10/08 09:04:50;;;;;;;4.55;2.83;;;;;;;;;;5042696;28;20079;-82
2021/10/08 09:07:17;;;;;;;4.75;3.00;;;;;;;;;;5043787;28;20029;-83
2021/10/08 09:09:44;;;;;;;4.57;3.40;;;;;;;;;;5043901;28;20025;-82
2021/10/08 09:12:11;;;;;;;5.18;2.90;;;;;;;;;;5041782;28;20039;-83
2021/10/08 09:14:37;;;;;;;7.90;3.10;;;;;;;;;;5044518;28;20037;-80
2021/10/08 09:17:11;;;;;;;4.45;2.70;;;14.60;99.90;;;;;;5041524;28;20104;-84
2021/10/08 09:19:46;;;;;;;5.32;2.85;;;14.70;99.90;;;;;;5042130;28;20021;-83
2021/10/08 09:22:13;;;;;;;5.85;2.80;;;;;;;;;;5039701;28;20085;-84
2021/10/08 09:24:39;;;;;;;5.88;3.35;;;;;;;;;;5036497;28;20046;-83
2021/10/08 09:27:12;;;;;;;8.43;2.85;;;14.90;99.90;;;;;;5044268;28;20052;-81
2021/10/08 09:29:45;;;;;;;8.63;3.03;;;;;;;;;;5041137;28;20045;-86
2021/10/08 09:32:11;;;;;;;4.45;2.70;;;;;;;;;;5037244;28;20041;-85
2021/10/08 09:34:38;;;;;;;4.25;2.72;;;;;;;;;;5041817;28;20402;-82
2021/10/08 09:37:06;;;;;;;8.15;4.13;;;;;;;;;;5040509;28;20036;-82
2021/10/08 09:39:33;;;;;;;6.97;2.97;;;;;;;;;;5040486;28;20570;-82
2021/10/08 09:42:03;;;;;;;4.63;2.40;;;;;;;;;;5034106;28;20101;-84
2021/10/08 09:44:31;;;;;;;6.18;2.70;;;15.70;99.30;;;;;;5058341;28;20068;-84
2021/10/08 09:47:15;;;;;;;5.70;2.58;;;16.30;98.20;;;;;;5042999;28;20487;-84
2021/10/08 09:49:43;;;;;;;5.43;2.80;;;16.50;97.70;;;;;;5040016;28;20037;-84
2021/10/08 09:52:26;;;;;;;4.43;3.00;;;16.70;97.10;;;;;;5036458;28;20028;-86
2021/10/08 09:55:01;;;;;;;6.00;2.90;;;17.20;96.40;;;;;;5037458;28;20024;-86
2021/10/08 09:57:28;;;;;;;4.28;2.53;;;;;;;;;;5041853;28;20104;-85
2021/10/08 09:59:55;;;;;;;4.95;3.03;;;17.10;96.00;;;;;;5036598;28;20065;-84
2021/10/08 10:02:22;;;;;;;4.85;2.97;;;;;;;;;;5028293;28;20521;-87
2021/10/08 10:04:54;;;;;;;4.55;2.50;;;16.60;96.70;;;;;;5038170;28;20029;-85
2021/10/08 10:07:26;;;;;;;4.47;2.80;;;16.50;97.20;;;;;;5040090;28;20021;-83
2021/10/08 10:09:52;;;;;;;5.20;2.75;;;;;;;;;;5037503;28;20070;-85
2021/10/08 10:12:20;;;;;;;4.38;2.88;;;;;;;;;;5035777;28;20056;-85
2021/10/08 10:14:47;;;;;;;5.53;2.50;;;;;;;;;;5032057;28;20059;-86
2021/10/08 10:17:15;;;;;;;10.52;2.80;;;16.40;97.40;;;;;;5062014;28;20379;-86
2021/10/08 10:19:43;;;;;;;4.22;2.80;;;;;;;;;;5028554;28;20140;-85
2021/10/08 10:22:13;;;;;;;5.35;2.72;;;;;;;;;;5033038;28;20029;-84
2021/10/08 10:24:40;;;;;;;4.05;2.67;;;;;;;;;;5042719;28;20433;-86
2021/10/08 10:27:06;;;;;;;3.83;2.75;;;;;;;;;;5036045;28;20113;-84
2021/10/08 10:29:31;;;;;;;5.70;3.03;;;;;;;;;;5034002;28;20071;-86
2021/10/08 10:31:58;;;;;;;4.15;2.90;;;;;;;;;;5036717;28;20029;-86
2021/10/08 10:34:24;;;;;;;6.38;2.83;;;;;;;;;;5032433;28;20801;-81
2021/10/08 10:36:50;;;;;;;6.25;2.58;;;;;;;;;;5035941;28;20099;-85
2021/10/08 10:39:20;;;;;;;4.60;2.20;;;;;;;;;;5047656;28;20036;-85
2021/10/08 10:41:50;;;;;;;4.88;2.58;;;;;;;;;;5044394;28;20031;-86
2021/10/08 10:44:27;;;;;;;4.90;2.22;;;;;;;;;;5038600;28;20060;-83
2021/10/08 10:47:12;;;;;;;10.10;2.83;;;;;;;;;;5037780;28;20108;-85
2021/10/08 10:49:41;;;;;;;4.57;2.50;;;;;;;;;;5045261;28;20025;-84
2021/10/08 10:52:11;;;;;;;4.65;3.00;;;;;;;;;;5037507;28;20021;-83
2021/10/08 10:54:37;;;;;;;4.68;2.78;;;;;;;;;;5044810;28;20025;-84
2021/10/08 10:57:04;;;;;;;5.13;2.70;;;;;;;;;;5060534;28;20021;-85
2021/10/08 10:59:31;;;;;;;4.18;2.60;;;;;;;;;;5040336;28;20083;-83
2021/10/08 11:02:10;;;;;;;5.57;2.53;;;;;;;;;;5032002;28;20028;-86
2021/10/08 11:04:37;;;;;;;5.88;2.72;;;;;;;;;;5032236;28;20056;-84
2021/10/08 11:07:04;;;;;;;8.13;2.95;;;;;;;;;;5043193;28;20389;-85
2021/10/08 11:09:30;;;;;;;4.38;2.83;;;;;;;;;;5056737;28;20084;-81
2021/10/08 11:12:33;;;;;;;4.65;2.45;;;18.40;93.10;;;;;;5033662;28;20469;-84
2021/10/08 11:15:17;;;;;;;3.88;2.63;;;18.00;94.40;;;;;;5035498;28;20422;-83
2021/10/08 11:17:46;;;;;;;4.65;2.70;;;;;;;;;;5046099;28;20088;-81
2021/10/08 11:20:42;;;;;;;3.88;2.22;;;17.70;94.10;;;;;;5039126;28;20055;-82
2021/10/08 11:23:21;;;;;;;7.93;2.50;;;17.60;94.50;;;;;;5040460;28;20052;-86
2021/10/08 11:25:57;;;;;;;4.90;2.30;;;17.70;94.40;;;;;;5032888;28;20029;-86
2021/10/08 11:28:33;;;;;;;4.75;2.50;;;17.60;94.50;;;;;;5047687;28;20067;-87
2021/10/08 11:30:59;;;;;;;3.60;2.40;;;;;;;;;;5061732;28;20040;-84
2021/10/08 11:33:40;;;;;;;3.28;2.47;;;17.60;94.60;;;;;;5040500;28;20024;-85
2021/10/08 11:36:25;;;;;;;5.95;2.58;;;17.60;98.10;;;;;;5043220;28;20040;-85
2021/10/08 11:39:17;;;;;;;3.85;2.25;;;17.60;94.40;;;;;;5041776;28;20032;-84
2021/10/08 11:41:44;;;;;;;4.50;2.55;;;;;;;;;;5060118;28;20521;-84
2021/10/08 11:44:32;;;;;;;5.30;2.78;;;;;;;;;;5036054;28;20059;-84
2021/10/08 11:47:02;;;;;;;4.60;2.80;;;;;;;;;;5035775;28;20482;-85
2021/10/08 11:51:58;;;;;;;4.20;2.63;;;;;;;;;;5055383;28;20908;-84
2021/10/08 11:54:24;;;;;;;3.35;2.17;;;;;;;;;;5038480;28;20025;-84
2021/10/08 11:57:00;;;;;;;3.58;2.50;;;;;;;;;;5037909;28;20025;-86
2021/10/08 11:59:26;;;;;;;4.57;3.05;;;;;;;;;;5057018;28;20080;-84
2021/10/08 12:02:13;;;;;;;4.13;2.55;;;18.00;93.40;;;;;;5060685;28;20036;-85
2021/10/08 12:04:59;;;;;;;4.82;2.63;;;17.90;93.60;;;;;;5040272;28;20028;-84
2021/10/08 12:07:30;;;;;;;3.65;2.55;;;18.10;94.00;;;;;;5033606;28;20074;-86
2021/10/08 12:10:05;;;;;;;;;;;18.20;93.60;;;;;;5031993;28;20025;-81
2021/10/08 12:12:31;;;;;;;4.03;2.22;;;;;;;;;;5038446;28;20344;-85
2021/10/08 12:14:58;;;;;;;5.70;2.25;;;;;;;;;;5032460;28;20074;-86
2021/10/08 12:17:24;;;;;;;4.45;2.47;;;;;;;;;;5041548;28;20123;-81
2021/10/08 12:19:50;;;;;;;4.57;2.33;;;;;;;;;;5039261;28;20057;-84
2021/10/08 12:22:26;;;;;;;5.30;2.35;;;;;;;;;;5060144;28;20036;-87
2021/10/08 12:25:05;;;;;;;4.43;2.42;;;18.40;92.40;;;;;;5038085;28;20032;-86
2021/10/08 12:27:31;;;;;;;4.75;2.47;;;;;;;;;;5038180;28;20047;-86
2021/10/08 12:29:57;;;;;;;4.70;2.30;;;;;;;;;;5040214;28;20083;-84
2021/10/08 12:32:26;;;;;;;4.68;2.50;;;;;;;;;;5041676;28;20028;-85
2021/10/08 12:34:53;;;;;;;4.18;2.30;;;;;;;;;;5037926;28;20029;-85
2021/10/08 12:37:23;;;;;;;3.17;2.13;;;;;;;;;;5043728;28;20478;-86
2021/10/08 12:40:08;;;;;;;3.25;2.00;;;;;;;;;;5035387;28;20033;-87
2021/10/08 12:42:36;;;;;;;3.42;2.25;;;;;;;;;;5035530;28;20893;-87
2021/10/08 12:45:02;;;;;;;3.25;2.30;;;;;;;;;;5036971;28;20104;-85
2021/10/08 12:47:38;;;;;;;4.43;2.30;;;;;;;;;;5040811;28;20036;-87
2021/10/08 12:50:08;;;;;;;3.88;2.45;;;17.90;91.70;;;;;;5036141;28;20025;-86
2021/10/08 12:52:38;;;;;;;4.47;2.72;;;;;;;;;;5029491;28;20116;-87
2021/10/08 12:55:15;;;;;;;4.90;2.60;;;;;;;;;;5038695;28;20021;-87
2021/10/08 12:57:59;;;;;;;4.15;2.40;;;;;;;;;;5059951;28;20069;-85
2021/10/08 13:00:57;;;;;;;3.90;2.30;;;18.70;90.90;;;;;;5037155;28;20438;-89
2021/10/08 13:03:32;;;;;;;3.85;2.45;;;;;;;;;;5035731;28;20067;-88
2021/10/08 13:05:58;;;;;;;3.80;2.67;;;;;;;;;;5036674;28;20489;-86
2021/10/08 13:08:26;;;;;;;3.80;2.70;;;;;;;;;;5036842;28;20067;-87
2021/10/08 13:10:56;;;;;;;4.18;2.60;;;;;;;;;;5027963;28;20176;-87
2021/10/08 13:13:23;;;;;;;4.20;2.75;;;;;;;;;;5058240;28;20469;-85
2021/10/08 13:15:50;;;;;;;3.83;2.95;;;;;;;;;;5033592;28;20055;-87
2021/10/08 13:18:16;;;;;;;8.38;2.95;;;;;;;;;;5032932;28;20021;-87
2021/10/08 13:20:45;;;;;;;5.43;3.78;;;19.10;90.10;;;;;;5056185;28;20055;-86
2021/10/08 13:23:11;;;;;;;4.40;3.00;;;;;;;;;;5039467;28;20033;-87
2021/10/08 13:25:39;;;;;;;5.85;3.17;;;;;;;;;;5037127;28;20025;-88
2021/10/08 13:28:08;;;;;;;6.68;3.10;;;;;;;;;;5038705;28;20036;-86
2021/10/08 13:30:34;;;;;;;5.40;3.35;;;;;;;;;;5030792;28;20036;-86
2021/10/08 13:33:00;;;;;;;9.80;4.68;;;;;;;;;;5036779;28;20105;-87
2021/10/08 13:35:29;;;;;;;5.22;3.60;;;;;;;;;;5041843;28;20047;-87
2021/10/08 13:37:56;;;;;;;6.50;3.78;;;;;;;;;;5045310;28;20102;-87
2021/10/08 13:40:22;;;;;;;6.30;3.67;;;;;;;;;;5038180;28;21971;-86
2021/10/08 13:42:48;;;;;;;5.85;3.63;;;;;;;;;;5032948;28;20025;-85
2021/10/08 13:45:15;;;;;;;6.18;3.78;;;;;;;;;;5037108;28;20479;-84
2021/10/08 13:47:41;;;;;;;6.75;4.07;;;;;;;;;;5038796;28;20037;-85
2021/10/08 13:50:08;;;;;;;5.60;3.75;;;17.90;91.80;;;;;;5043254;28;20048;-86
2021/10/08 13:52:36;;;;;;;5.85;3.88;;;17.80;92.00;;;;;;5043196;28;20119;-83
2021/10/08 13:55:03;;;;;;;5.65;3.80;;;17.70;92.10;;;;;;5045717;28;20025;-86
2021/10/08 13:57:30;;;;;;;6.10;4.05;;;;;;;;;;5046737;28;20163;-84
2021/10/08 13:59:55;;;;;;;9.70;4.20;;;;;;;;;;5038530;28;20104;-87
2021/10/08 14:02:25;;;;;;;7.03;4.60;;;;;;;;;;5043787;28;20131;-86
2021/10/08 14:05:06;;;;;;;7.60;4.07;;;;;;;;;;5042634;28;20026;-87
2021/10/08 14:10:17;;;;;;;6.65;4.35;;;;;;;;;;5067239;28;20112;-82
2021/10/08 14:12:43;;;;;;;6.57;4.57;;;;;;;;;;5049668;28;20061;-85
2021/10/08 14:15:12;;;;;;;7.40;4.45;;;17.50;96.90;;;;;;5046920;28;20025;-87
2021/10/08 14:17:38;;;;;;;7.60;4.43;;;;;;;;;;5042066;28;20167;-84
2021/10/08 14:20:05;;;;;;;8.13;4.65;;;;;;;;;;5037068;28;20052;-83
2021/10/08 14:22:35;;;;;;;8.88;4.88;;;;;;;;;;5046430;28;20048;-86
2021/10/08 14:25:01;;;;;;;7.23;4.60;;;;;;;;;;5071072;28;20043;-86
2021/10/08 14:27:33;;;;;;;10.98;5.68;;;;;;;;;;5049423;28;20468;-86
2021/10/08 14:29:59;;;;;;;8.10;5.30;;;;;;;;;;5046783;28;20051;-85
2021/10/08 14:32:25;;;;;;;8.98;5.47;;;;;;;;;;5057060;28;20486;-86
2021/10/08 14:34:51;;;;;;;8.88;5.15;;;;;;;;;;5042925;28;20040;-85